Time;durP1;ratioP1;P1;durP2;ratioP2;P2;SDS_P1;SDS_P2;PMS_P1;PMS_P2;Temp;Humidity;BMP_temperature;BMP_pressure;BME280_temperature;BME280_humidity;BME280_pressure;Samples;Min_cycle;Max_cycle;Signal;HPM_P1;HPM_P2
2022/09/13 04:05:42;;;;;;;2.87;2.57;;;13.10;99.90;;;;;;6244608;22;20443;-68
2022/09/13 04:08:07;;;;;;;2.83;2.63;;;13.10;99.90;;;;;;6245501;23;20424;-68
2022/09/13 04:10:35;;;;;;;2.20;2.10;;;13.10;99.90;;;;;;6245945;23;20608;-68
2022/09/13 04:13:00;;;;;;;3.07;2.47;;;13.10;99.90;;;;;;6245871;23;20171;-69
2022/09/13 04:15:27;;;;;;;3.13;2.80;;;13.10;99.90;;;;;;6216999;23;20402;-68
2022/09/13 04:17:53;;;;;;;2.93;2.63;;;13.10;99.90;;;;;;6216256;23;20153;-68
2022/09/13 04:20:19;;;;;;;3.17;2.87;;;13.10;99.90;;;;;;6216139;23;20892;-69
2022/09/13 04:22:55;;;;;;;3.67;3.30;;;13.10;99.90;;;;;;6215240;23;20532;-69
2022/09/13 04:25:21;;;;;;;8.23;3.30;;;13.10;99.90;;;;;;6215865;23;20390;-70
2022/09/13 04:27:58;;;;;;;3.57;2.80;;;13.10;99.90;;;;;;6215343;23;20425;-69
2022/09/13 04:30:24;;;;;;;3.33;2.97;;;13.10;99.90;;;;;;6215764;23;20359;-68
2022/09/13 04:32:50;;;;;;;2.93;2.73;;;13.00;99.90;;;;;;6214751;23;20411;-69
2022/09/13 04:35:18;;;;;;;3.03;2.80;;;13.00;99.90;;;;;;6214641;23;20394;-69
2022/09/13 04:37:44;;;;;;;3.73;3.20;;;13.00;99.90;;;;;;6215931;23;20151;-69
2022/09/13 04:40:10;;;;;;;3.63;2.90;;;12.90;99.90;;;;;;6215655;23;20672;-68
2022/09/13 04:42:36;;;;;;;3.27;2.90;;;12.90;99.90;;;;;;6215074;23;20380;-68
2022/09/13 04:45:02;;;;;;;3.17;2.67;;;12.90;99.90;;;;;;6215515;23;20716;-68
2022/09/13 04:47:28;;;;;;;4.00;3.17;;;12.90;99.90;;;;;;6215803;23;20154;-68
2022/09/13 04:49:54;;;;;;;3.47;3.10;;;12.80;99.90;;;;;;6215672;23;20830;-67
2022/09/13 04:52:19;;;;;;;2.83;2.63;;;12.80;99.90;;;;;;6188489;23;20201;-68
2022/09/13 04:54:46;;;;;;;3.40;2.70;;;12.90;99.90;;;;;;6215460;23;20795;-69
2022/09/13 04:57:12;;;;;;;3.20;2.90;;;12.90;99.90;;;;;;6215481;23;20219;-69
2022/09/13 04:59:38;;;;;;;3.03;2.80;;;13.00;99.90;;;;;;6215515;23;20366;-69
2022/09/13 05:02:04;;;;;;;2.53;2.20;;;13.10;99.90;;;;;;6214767;23;20378;-68
2022/09/13 05:04:29;;;;;;;3.20;2.77;;;13.10;99.90;;;;;;6214699;23;20179;-69
2022/09/13 05:06:55;;;;;;;3.00;2.80;;;13.20;99.90;;;;;;6215576;23;20148;-69
2022/09/13 05:09:20;;;;;;;3.53;3.17;;;13.20;99.90;;;;;;6215678;23;20477;-69
2022/09/13 05:11:46;;;;;;;3.30;3.00;;;13.30;99.90;;;;;;6188572;23;20545;-68
2022/09/13 05:14:12;;;;;;;3.13;2.83;;;13.40;99.90;;;;;;6215112;23;20195;-68
2022/09/13 05:16:37;;;;;;;4.73;2.90;;;13.50;99.90;;;;;;6215022;23;20174;-68
2022/09/13 05:19:03;;;;;;;3.27;2.47;;;13.50;99.90;;;;;;6215307;23;20148;-74
2022/09/13 05:21:30;;;;;;;2.70;2.50;;;13.70;99.90;;;;;;6217130;23;20379;-70
2022/09/13 05:23:56;;;;;;;3.23;3.03;;;13.70;99.90;;;;;;6216966;23;20169;-68
2022/09/13 05:26:24;;;;;;;5.77;2.70;;;13.80;99.90;;;;;;6217219;23;20774;-69
2022/09/13 05:28:50;;;;;;;4.00;3.50;;;14.00;99.90;;;;;;6217181;23;20685;-67
2022/09/13 05:31:23;;;;;;;4.90;3.33;;;14.10;99.90;;;;;;6217707;23;20382;-67
2022/09/13 05:34:00;;;;;;;3.90;3.00;;;14.20;99.90;;;;;;6216918;23;20177;-68
2022/09/13 05:36:26;;;;;;;3.00;2.80;;;14.20;99.90;;;;;;6217115;23;20413;-69
2022/09/13 05:38:53;;;;;;;3.83;2.83;;;14.30;99.90;;;;;;6217395;23;20421;-66
2022/09/13 05:41:19;;;;;;;2.50;2.30;;;14.30;99.90;;;;;;6217597;23;20898;-66
2022/09/13 05:43:45;;;;;;;3.33;3.00;;;14.30;99.90;;;;;;6216305;23;20370;-68
2022/09/13 05:46:16;;;;;;;5.00;3.20;;;14.30;99.90;;;;;;6190064;23;20376;-66
2022/09/13 05:48:42;;;;;;;2.73;2.53;;;14.30;99.90;;;;;;6190684;23;20161;-68
2022/09/13 05:51:19;;;;;;;12.00;6.20;;;14.40;99.90;;;;;;6217229;23;20372;-68
2022/09/13 05:53:47;;;;;;;7.73;4.50;;;14.40;99.90;;;;;;6189815;23;20428;-67
2022/09/13 05:56:15;;;;;;;5.20;3.30;;;14.40;99.90;;;;;;6190418;23;20376;-67
2022/09/13 05:58:44;;;;;;;3.13;2.93;;;14.40;99.90;;;;;;6217401;23;20669;-67
2022/09/13 06:01:10;;;;;;;3.43;3.13;;;14.50;99.90;;;;;;6216877;23;20894;-67
2022/09/13 06:03:36;;;;;;;3.30;2.67;;;14.50;99.90;;;;;;6216721;23;20724;-66
2022/09/13 06:06:03;;;;;;;2.20;2.00;;;14.60;99.90;;;;;;6216570;23;20391;-69
2022/09/13 06:08:30;;;;;;;3.70;3.40;;;14.60;99.90;;;;;;6217249;23;20400;-69
2022/09/13 06:11:04;;;;;;;3.70;3.30;;;14.70;99.90;;;;;;6216003;23;20377;-71
2022/09/13 06:13:31;;;;;;;3.50;3.20;;;14.80;99.90;;;;;;6214283;23;20803;-69
2022/09/13 06:15:58;;;;;;;3.30;3.00;;;14.80;99.90;;;;;;6214383;23;20459;-68
2022/09/13 06:18:24;;;;;;;4.37;3.17;;;14.90;99.90;;;;;;6214690;23;20367;-69
2022/09/13 06:20:56;;;;;;;2.57;2.33;;;15.10;99.90;;;;;;6187762;23;20899;-70
2022/09/13 06:23:21;;;;;;;4.07;3.40;;;15.20;99.90;;;;;;6214041;23;20365;-70
2022/09/13 06:25:47;;;;;;;6.93;4.73;;;15.30;99.90;;;;;;6215108;23;20395;-71
2022/09/13 06:28:12;;;;;;;3.10;2.83;;;15.50;99.90;;;;;;6217514;23;20150;-70
2022/09/13 06:30:38;;;;;;;3.10;2.87;;;15.60;99.90;;;;;;6216810;23;20157;-69
2022/09/13 06:33:03;;;;;;;2.70;2.50;;;15.70;99.90;;;;;;6189205;23;20179;-68
2022/09/13 06:35:29;;;;;;;5.83;2.50;;;15.80;99.90;;;;;;6216766;23;20162;-69
2022/09/13 06:37:59;;;;;;;2.80;2.60;;;15.90;99.90;;;;;;6216817;23;20646;-68
2022/09/13 06:40:24;;;;;;;3.83;3.20;;;16.00;99.90;;;;;;6216784;23;20492;-71
2022/09/13 06:42:50;;;;;;;4.60;3.10;;;16.10;99.90;;;;;;6216330;23;20381;-71
2022/09/13 06:45:17;;;;;;;4.10;3.80;;;16.10;99.90;;;;;;6216505;23;20166;-71
2022/09/13 06:47:43;;;;;;;2.73;2.30;;;16.00;99.90;;;;;;6217300;23;20150;-70
2022/09/13 06:50:08;;;;;;;2.80;2.60;;;16.00;99.90;;;;;;6216652;23;20432;-71
2022/09/13 06:52:34;;;;;;;3.67;3.37;;;15.90;99.90;;;;;;6216201;23;20192;-71
2022/09/13 06:55:00;;;;;;;3.60;3.30;;;15.90;99.90;;;;;;6216527;23;20205;-71
2022/09/13 06:57:28;;;;;;;2.63;2.43;;;15.90;99.90;;;;;;6216503;23;20154;-71
2022/09/13 06:59:54;;;;;;;3.73;3.30;;;15.90;99.90;;;;;;6216571;23;20153;-71
2022/09/13 07:02:19;;;;;;;3.33;3.00;;;16.00;99.90;;;;;;6189522;23;20383;-65
2022/09/13 07:04:45;;;;;;;6.00;3.00;;;16.20;99.90;;;;;;6216464;23;20182;-65
2022/09/13 07:07:10;;;;;;;3.57;3.27;;;16.40;99.90;;;;;;6216583;23;20230;-65
2022/09/13 07:09:36;;;;;;;4.13;3.70;;;16.60;99.90;;;;;;6216907;23;20224;-65
2022/09/13 07:12:04;;;;;;;2.83;2.63;;;16.80;99.90;;;;;;6216513;23;20154;-65
2022/09/13 07:14:30;;;;;;;3.20;2.80;;;17.10;99.90;;;;;;6215901;23;20191;-66
2022/09/13 07:16:56;;;;;;;2.80;2.60;;;17.30;99.90;;;;;;6216481;23;20466;-65
2022/09/13 07:19:25;;;;;;;4.00;3.10;;;17.50;99.90;;;;;;6216513;23;20155;-64
2022/09/13 07:21:51;;;;;;;3.60;3.30;;;17.70;99.90;;;;;;6216770;23;20379;-64
2022/09/13 07:24:17;;;;;;;3.53;3.20;;;17.90;99.90;;;;;;6215968;23;20474;-65
2022/09/13 07:26:43;;;;;;;3.67;2.80;;;18.20;99.90;;;;;;6216274;23;20356;-64
2022/09/13 07:29:15;;;;;;;3.40;3.10;;;18.40;99.90;;;;;;6216177;23;20476;-65
2022/09/13 07:31:43;;;;;;;3.30;3.00;;;18.50;99.90;;;;;;6216330;23;20377;-64
2022/09/13 07:34:15;;;;;;;8.33;3.30;;;18.50;99.90;;;;;;6215593;23;20498;-65
2022/09/13 07:36:41;;;;;;;3.37;3.07;;;18.50;99.90;;;;;;6216562;23;20727;-64
2022/09/13 07:39:07;;;;;;;3.37;3.07;;;18.60;99.90;;;;;;6190265;23;20368;-65
2022/09/13 07:41:34;;;;;;;2.87;2.67;;;18.70;99.90;;;;;;6216267;23;20343;-65
2022/09/13 07:44:06;;;;;;;3.73;2.80;;;18.70;99.90;;;;;;6215250;23;20388;-64
2022/09/13 07:46:36;;;;;;;4.97;2.50;;;18.90;99.90;;;;;;6191614;23;20389;-64
2022/09/13 07:49:02;;;;;;;2.83;2.60;;;19.00;99.90;;;;;;6216332;23;20396;-65
2022/09/13 07:51:30;;;;;;;3.90;2.00;;;19.20;99.90;;;;;;6216359;23;20427;-64
2022/09/13 07:54:02;;;;;;;2.63;2.43;;;19.50;99.90;;;;;;6215703;23;20416;-72
2022/09/13 07:56:35;;;;;;;2.10;2.00;;;20.00;99.90;;;;;;6216082;23;20407;-67
2022/09/13 07:59:05;;;;;;;2.20;2.00;;;20.80;99.90;;;;;;6216094;23;20365;-69
2022/09/13 08:01:36;;;;;;;2.50;2.40;;;21.70;99.90;;;;;;6189755;23;20485;-68
2022/09/13 08:04:05;;;;;;;3.70;2.80;;;22.60;99.90;;;;;;6214882;23;20729;-68
2022/09/13 08:06:33;;;;;;;2.30;2.20;;;23.50;99.90;;;;;;6216228;23;20686;-69
2022/09/13 08:08:59;;;;;;;3.67;2.50;;;24.40;98.40;;;;;;6216193;23;20679;-68
2022/09/13 08:11:35;;;;;;;8.73;2.80;;;25.10;97.10;;;;;;6215770;23;20380;-68
2022/09/13 08:14:01;;;;;;;1.90;1.80;;;25.40;95.20;;;;;;6215689;23;20418;-67
2022/09/13 08:16:29;;;;;;;2.13;2.03;;;25.70;94.80;;;;;;6215853;23;20428;-67
2022/09/13 08:18:57;;;;;;;5.20;2.13;;;26.10;94.10;;;;;;6216036;23;20380;-66
2022/09/13 08:21:24;;;;;;;2.67;2.27;;;26.40;93.40;;;;;;6215879;23;20347;-65
2022/09/13 08:23:55;;;;;;;2.13;1.93;;;26.70;93.20;;;;;;6215503;23;20396;-66
2022/09/13 08:26:21;;;;;;;2.40;1.87;;;27.10;92.40;;;;;;6215619;23;20411;-68
2022/09/13 08:28:46;;;;;;;2.60;2.40;;;27.40;91.80;;;;;;6216126;23;20408;-65
2022/09/13 08:31:15;;;;;;;2.63;2.43;;;27.60;91.20;;;;;;6215634;23;20175;-66
2022/09/13 08:33:43;;;;;;;5.17;3.07;;;27.60;90.70;;;;;;6215206;23;20569;-67
2022/09/13 08:36:09;;;;;;;2.40;1.80;;;27.90;90.20;;;;;;6216094;23;20403;-65
2022/09/13 08:38:34;;;;;;;3.00;1.90;;;28.20;90.20;;;;;;6215920;23;20815;-67
2022/09/13 08:41:38;;;;;;;2.07;1.97;;;28.60;88.60;;;;;;6216208;23;20154;-67
2022/09/13 08:44:13;;;;;;;2.10;2.00;;;29.00;86.90;;;;;;6211737;23;20169;-66
2022/09/13 08:46:43;;;;;;;2.37;2.17;;;29.20;85.80;;;;;;6215978;23;20750;-68
2022/09/13 08:49:22;;;;;;;2.30;1.83;;;29.50;85.90;;;;;;6215694;23;20365;-67
2022/09/13 08:51:52;;;;;;;2.00;1.80;;;29.90;84.60;;;;;;6215986;23;20682;-67
2022/09/13 08:54:19;;;;;;;2.20;2.10;;;30.10;83.30;;;;;;6214771;23;20494;-66
2022/09/13 08:57:08;;;;;;;2.50;2.30;;;30.40;82.00;;;;;;6215589;23;20383;-67
2022/09/13 08:59:58;;;;;;;2.00;1.90;;;30.70;81.10;;;;;;6215619;23;20375;-68
2022/09/13 09:02:46;;;;;;;2.83;2.70;;;30.70;79.60;;;;;;6215178;23;20367;-67
2022/09/13 09:05:18;;;;;;;2.27;2.00;;;31.10;78.60;;;;;;6215575;23;20801;-68
2022/09/13 09:08:09;;;;;;;2.50;2.33;;;31.00;78.10;;;;;;6215896;23;20630;-66
2022/09/13 09:10:46;;;;;;;2.07;1.70;;;30.80;79.20;;;;;;6215607;23;20709;-66
2022/09/13 09:13:15;;;;;;;2.10;1.80;;;30.50;78.70;;;;;;6214874;23;20382;-67
2022/09/13 09:15:48;;;;;;;2.00;1.80;;;30.30;79.80;;;;;;6215681;23;20922;-67
2022/09/13 09:18:14;;;;;;;2.60;1.90;;;30.20;79.80;;;;;;6215922;23;20332;-68
2022/09/13 09:20:45;;;;;;;2.50;2.30;;;30.00;79.80;;;;;;6215891;23;20343;-67
2022/09/13 09:23:17;;;;;;;2.10;2.00;;;29.50;80.40;;;;;;6215305;23;20161;-68
2022/09/13 09:25:43;;;;;;;1.53;1.43;;;29.00;81.60;;;;;;6215664;23;20328;-67
2022/09/13 09:28:20;;;;;;;2.37;2.27;;;28.70;81.90;;;;;;6215552;23;20359;-68
2022/09/13 09:31:09;;;;;;;4.70;2.57;;;28.60;82.30;;;;;;6215823;23;20332;-67
2022/09/13 09:34:02;;;;;;;2.90;2.70;;;28.80;83.00;;;;;;6214933;23;20390;-67
2022/09/13 09:36:45;;;;;;;2.60;1.97;;;29.00;82.70;;;;;;6215755;23;20443;-67
2022/09/13 09:39:12;;;;;;;2.37;2.17;;;29.20;81.50;;;;;;6188991;23;20664;-67
2022/09/13 09:41:38;;;;;;;2.40;2.23;;;29.00;80.90;;;;;;6215468;23;20853;-70
2022/09/13 09:44:22;;;;;;;2.10;2.00;;;28.90;80.60;;;;;;6214908;23;20364;-67
2022/09/13 09:47:19;;;;;;;2.23;2.03;;;28.80;81.60;;;;;;6215294;23;20207;-68
2022/09/13 09:52:50;;;;;;;2.87;2.27;;;28.40;80.90;;;;;;6215063;23;20495;-66
2022/09/13 09:55:21;;;;;;;2.00;1.90;;;28.30;82.00;;;;;;6215077;23;20402;-67
2022/09/13 09:57:56;;;;;;;1.93;1.80;;;28.20;80.80;;;;;;6215501;23;20419;-64
2022/09/13 10:00:24;;;;;;;1.70;1.60;;;28.20;80.20;;;;;;6215532;23;20335;-67
2022/09/13 10:02:53;;;;;;;2.40;2.20;;;28.30;79.50;;;;;;6215317;23;20351;-66
2022/09/13 10:05:21;;;;;;;1.90;1.73;;;28.40;80.80;;;;;;6215181;23;20419;-64
2022/09/13 10:07:59;;;;;;;2.37;1.80;;;28.50;79.50;;;;;;6217331;23;20362;-64
2022/09/13 10:10:35;;;;;;;1.80;1.70;;;28.50;79.70;;;;;;6216941;23;20385;-64
2022/09/13 10:13:01;;;;;;;8.50;2.37;;;28.40;79.30;;;;;;6216744;23;20370;-65
2022/09/13 10:15:32;;;;;;;1.90;1.80;;;28.50;80.00;;;;;;6216863;23;20903;-64
2022/09/13 10:18:03;;;;;;;1.53;1.43;;;28.90;78.50;;;;;;6217066;23;20656;-64
2022/09/13 10:20:30;;;;;;;2.07;1.50;;;29.40;77.80;;;;;;6216965;23;20404;-64
2022/09/13 10:23:29;;;;;;;1.70;1.60;;;30.10;74.90;;;;;;6216591;23;20398;-66
2022/09/13 10:26:12;;;;;;;1.87;1.53;;;31.00;72.40;;;;;;6152185;23;20392;-64
2022/09/13 10:28:58;;;;;;;1.40;1.40;;;31.40;70.90;;;;;;6217172;23;20378;-65
2022/09/13 10:31:38;;;;;;;1.77;1.67;;;31.70;69.50;;;;;;6217696;23;20708;-64
2022/09/13 10:34:16;;;;;;;1.60;1.60;;;32.00;67.50;;;;;;6191243;23;20419;-67
2022/09/13 10:37:11;;;;;;;1.60;1.50;;;32.10;66.50;;;;;;6216947;23;20341;-66
2022/09/13 10:39:53;;;;;;;1.77;1.67;;;32.40;66.00;;;;;;6217156;23;20699;-67
2022/09/13 10:42:22;;;;;;;1.50;1.40;;;32.80;67.30;;;;;;6190622;23;20386;-68
2022/09/13 10:44:59;;;;;;;1.63;1.53;;;33.30;63.90;;;;;;6216855;23;20367;-65
2022/09/13 10:47:33;;;;;;;1.67;1.57;;;33.30;62.20;;;;;;6216963;23;20348;-64
2022/09/13 10:50:23;;;;;;;1.83;1.73;;;33.30;61.00;;;;;;6216806;23;20330;-65
2022/09/13 10:52:55;;;;;;;1.60;1.50;;;33.60;61.30;;;;;;6216129;23;20411;-65
2022/09/13 10:55:32;;;;;;;1.40;1.30;;;33.80;59.80;;;;;;6216680;23;20424;-65
2022/09/13 10:58:01;;;;;;;1.50;1.40;;;33.80;57.90;;;;;;6217110;23;20644;-64
2022/09/13 11:00:53;;;;;;;1.43;1.33;;;33.80;57.30;;;;;;6216668;23;20365;-65
2022/09/13 11:03:27;;;;;;;1.77;1.67;;;33.70;58.20;;;;;;6200293;23;20360;-66
2022/09/13 11:06:19;;;;;;;1.30;1.30;;;33.40;57.50;;;;;;6216728;23;20397;-64
2022/09/13 11:09:10;;;;;;;1.90;1.80;;;32.80;56.20;;;;;;6216570;23;20328;-64
2022/09/13 11:11:40;;;;;;;1.40;1.30;;;32.10;58.60;;;;;;6216325;23;20825;-65
2022/09/13 11:14:18;;;;;;;1.97;1.33;;;31.60;59.00;;;;;;6216020;23;20395;-64
2022/09/13 11:17:05;;;;;;;1.47;1.37;;;31.40;59.70;;;;;;6216553;23;20353;-65
2022/09/13 11:19:50;;;;;;;1.13;1.13;;;31.20;61.20;;;;;;6189661;23;20421;-63
2022/09/13 11:22:27;;;;;;;1.50;1.40;;;31.00;61.20;;;;;;6216685;23;20430;-63
2022/09/13 11:25:27;;;;;;;1.33;1.30;;;30.80;61.10;;;;;;6215633;23;20393;-66
2022/09/13 11:28:14;;;;;;;1.33;1.23;;;30.40;62.00;;;;;;6216154;23;20323;-64
2022/09/13 11:31:20;;;;;;;1.40;1.37;;;30.20;62.30;;;;;;6215970;23;20371;-65
2022/09/13 11:33:58;;;;;;;1.60;1.47;;;30.20;63.40;;;;;;6164187;23;20750;-66
2022/09/13 11:36:52;;;;;;;1.33;1.27;;;30.30;64.70;;;;;;6215519;23;20870;-65
2022/09/13 11:39:27;;;;;;;1.57;1.47;;;30.40;63.00;;;;;;6215851;23;20768;-64
2022/09/13 11:42:16;;;;;;;1.27;1.17;;;30.40;63.40;;;;;;6216057;23;20349;-66
2022/09/13 11:45:23;;;;;;;1.50;1.40;;;30.30;62.50;;;;;;6215881;23;20415;-65
2022/09/13 11:48:27;;;;;;;1.27;1.27;;;30.30;62.80;;;;;;6188944;23;20385;-66
2022/09/13 11:51:12;;;;;;;1.57;1.47;;;30.20;62.60;;;;;;6183016;23;20347;-63
2022/09/13 11:53:52;;;;;;;5.13;1.33;;;30.20;62.60;;;;;;6215290;23;20417;-63
2022/09/13 11:56:33;;;;;;;1.50;1.40;;;30.10;63.80;;;;;;6215984;23;20426;-64
2022/09/13 11:59:25;;;;;;;1.33;1.30;;;30.10;64.30;;;;;;6215859;23;20488;-64
2022/09/13 12:01:57;;;;;;;1.70;1.60;;;30.00;64.30;;;;;;6215442;23;20328;-63
2022/09/13 12:04:37;;;;;;;1.67;1.57;;;29.80;62.90;;;;;;6215079;23;20411;-64
2022/09/13 12:07:15;;;;;;;1.30;1.30;;;29.60;62.60;;;;;;6215614;23;20747;-63
2022/09/13 12:09:52;;;;;;;1.37;1.37;;;29.40;63.30;;;;;;6215841;23;20659;-62
2022/09/13 12:12:20;;;;;;;1.10;1.10;;;29.30;63.40;;;;;;6214763;23;20332;-63
2022/09/13 12:14:57;;;;;;;1.60;1.50;;;29.20;64.20;;;;;;6214550;23;20397;-62
2022/09/13 12:17:30;;;;;;;1.50;1.13;;;29.10;64.00;;;;;;6215041;23;20415;-64
2022/09/13 12:19:59;;;;;;;1.50;1.40;;;29.10;63.30;;;;;;6215009;23;20697;-64
2022/09/13 12:22:31;;;;;;;1.13;1.13;;;29.10;63.50;;;;;;6214960;23;20827;-63
2022/09/13 12:25:02;;;;;;;1.80;1.70;;;29.10;63.00;;;;;;6215552;23;20412;-63
2022/09/13 12:27:30;;;;;;;1.33;1.23;;;29.10;61.00;;;;;;6215325;23;20346;-61
2022/09/13 12:30:16;;;;;;;0.93;0.93;;;29.10;61.80;;;;;;6215161;23;20364;-61
2022/09/13 12:32:46;;;;;;;0.90;0.90;;;29.10;61.00;;;;;;6188058;23;20749;-62
2022/09/13 12:35:18;;;;;;;1.23;1.13;;;29.10;60.60;;;;;;6215744;23;20367;-62
2022/09/13 12:38:05;;;;;;;1.20;1.10;;;29.10;58.70;;;;;;6215188;23;20364;-62
2022/09/13 12:41:01;;;;;;;0.93;0.93;;;29.00;58.70;;;;;;6215112;23;20429;-62
2022/09/13 12:44:08;;;;;;;0.90;0.90;;;29.10;59.00;;;;;;6215001;23;20472;-62
2022/09/13 12:46:49;;;;;;;2.40;1.00;;;29.20;59.20;;;;;;6215341;23;20344;-62
2022/09/13 12:49:43;;;;;;;1.17;1.13;;;29.30;58.50;;;;;;6215813;23;20323;-62
2022/09/13 12:52:57;;;;;;;0.80;0.80;;;29.30;57.40;;;;;;6219040;23;20697;-62
2022/09/13 12:55:40;;;;;;;1.10;1.10;;;29.30;57.20;;;;;;6208844;23;20408;-64
2022/09/13 12:58:24;;;;;;;1.27;1.17;;;29.20;57.40;;;;;;6215822;23;20324;-62
2022/09/13 13:01:13;;;;;;;1.53;1.07;;;29.20;57.70;;;;;;6215813;23;20660;-62
2022/09/13 13:03:58;;;;;;;1.63;1.53;;;29.30;57.80;;;;;;6215655;23;20877;-62
2022/09/13 13:06:37;;;;;;;0.80;0.80;;;29.20;57.40;;;;;;6159316;23;20352;-62
2022/09/13 13:09:34;;;;;;;1.00;1.00;;;29.20;56.80;;;;;;6185706;23;20332;-62
2022/09/13 13:12:00;;;;;;;1.53;1.07;;;29.10;56.10;;;;;;6186017;23;20333;-62
2022/09/13 13:14:29;;;;;;;1.37;1.00;;;29.10;56.70;;;;;;6185391;23;20400;-63
2022/09/13 13:17:33;;;;;;;2.70;1.40;;;29.10;56.90;;;;;;6185232;23;20676;-62
2022/09/13 13:19:59;;;;;;;1.00;1.00;;;29.00;58.10;;;;;;6185139;23;20370;-62
2022/09/13 13:22:43;;;;;;;1.03;0.90;;;28.90;57.80;;;;;;6185001;23;20347;-62
2022/09/13 13:25:37;;;;;;;3.27;1.10;;;28.80;57.70;;;;;;6184782;23;20170;-63
2022/09/13 13:28:24;;;;;;;3.40;1.47;;;28.70;58.20;;;;;;6185106;23;20337;-62
2022/09/13 13:30:52;;;;;;;2.53;0.97;;;28.70;58.00;;;;;;6185042;23;20362;-61
2022/09/13 13:33:24;;;;;;;0.97;0.90;;;28.60;57.90;;;;;;6184212;23;20414;-62
2022/09/13 13:35:51;;;;;;;1.03;1.03;;;28.70;57.70;;;;;;6185124;23;20634;-63
2022/09/13 13:38:39;;;;;;;2.00;1.10;;;28.70;58.00;;;;;;6184550;23;20377;-63
2022/09/13 13:41:39;;;;;;;4.17;1.00;;;28.70;57.90;;;;;;6185624;23;20709;-63
2022/09/13 13:44:20;;;;;;;0.93;0.93;;;28.70;57.70;;;;;;6186258;23;20692;-63
2022/09/13 13:47:06;;;;;;;1.27;1.17;;;28.60;57.50;;;;;;6186561;23;20630;-62
2022/09/13 13:49:33;;;;;;;1.27;0.90;;;28.60;57.80;;;;;;6126365;23;20435;-63
2022/09/13 13:52:08;;;;;;;0.73;0.73;;;28.70;57.90;;;;;;6187131;23;20854;-63
2022/09/13 13:54:48;;;;;;;0.87;0.87;;;28.90;57.80;;;;;;6186129;23;20397;-62
2022/09/13 13:57:25;;;;;;;1.17;1.10;;;29.00;57.20;;;;;;6186963;23;20325;-63
2022/09/13 13:59:55;;;;;;;0.70;0.70;;;29.10;57.10;;;;;;6186836;23;20710;-62
2022/09/13 14:02:29;;;;;;;0.80;0.80;;;29.10;57.10;;;;;;6186378;23;20373;-63
2022/09/13 14:05:22;;;;;;;0.90;0.90;;;29.10;56.30;;;;;;6200260;23;20413;-63
2022/09/13 14:08:06;;;;;;;0.97;0.90;;;29.00;56.70;;;;;;6216979;23;20662;-63
2022/09/13 14:10:38;;;;;;;0.80;0.80;;;29.00;56.90;;;;;;6216959;23;20369;-63
2022/09/13 14:13:16;;;;;;;1.53;0.83;;;28.90;56.80;;;;;;6216201;23;20680;-62
2022/09/13 14:15:54;;;;;;;0.77;0.77;;;28.70;55.90;;;;;;6216955;23;20351;-62
2022/09/13 14:19:02;;;;;;;0.80;0.80;;;28.70;56.10;;;;;;6216700;23;20656;-62
2022/09/13 14:21:29;;;;;;;0.87;0.87;;;28.60;57.00;;;;;;6216854;23;20356;-62
2022/09/13 14:24:24;;;;;;;0.80;0.80;;;28.50;57.30;;;;;;6215730;23;20480;-62
2022/09/13 14:26:53;;;;;;;0.90;0.90;;;28.50;57.60;;;;;;6216522;23;20379;-62
2022/09/13 14:29:21;;;;;;;0.80;0.80;;;28.50;57.90;;;;;;6189780;23;20827;-63
2022/09/13 14:31:52;;;;;;;0.80;0.80;;;28.50;58.10;;;;;;6216182;23;20354;-63
2022/09/13 14:34:34;;;;;;;0.90;0.90;;;28.40;58.90;;;;;;6215811;23;20415;-63
2022/09/13 14:37:03;;;;;;;1.00;1.00;;;28.40;58.60;;;;;;6190219;23;20852;-63
2022/09/13 14:39:29;;;;;;;1.63;0.87;;;28.50;58.50;;;;;;6216360;23;20370;-63
2022/09/13 14:42:02;;;;;;;1.20;1.10;;;28.50;58.20;;;;;;6216540;23;20351;-62
2022/09/13 14:44:28;;;;;;;0.90;0.80;;;28.50;58.30;;;;;;6216613;23;20405;-62
2022/09/13 14:47:22;;;;;;;1.33;0.83;;;28.40;58.10;;;;;;6215968;23;20349;-64
2022/09/13 14:50:20;;;;;;;0.93;0.93;;;28.40;57.80;;;;;;6200424;23;20700;-63
2022/09/13 14:52:55;;;;;;;2.03;1.10;;;28.30;58.30;;;;;;6205895;23;20427;-63
2022/09/13 14:55:26;;;;;;;1.10;1.00;;;28.30;58.50;;;;;;6214571;23;20399;-62
2022/09/13 14:57:57;;;;;;;0.90;0.90;;;28.40;58.20;;;;;;6214687;23;20707;-62
2022/09/13 15:00:24;;;;;;;0.90;0.90;;;28.40;57.20;;;;;;6214693;23;20673;-63
2022/09/13 15:02:53;;;;;;;1.33;0.80;;;28.30;57.50;;;;;;6215853;23;20360;-63
2022/09/13 15:05:21;;;;;;;0.80;0.80;;;28.40;57.20;;;;;;6216500;23;20426;-62
2022/09/13 15:07:47;;;;;;;0.90;0.90;;;28.40;57.30;;;;;;6216663;23;20358;-63
2022/09/13 15:10:30;;;;;;;0.77;0.77;;;28.40;57.50;;;;;;6216160;23;20396;-62
2022/09/13 15:13:04;;;;;;;1.90;1.23;;;28.40;57.70;;;;;;6216325;23;20172;-63
2022/09/13 15:15:30;;;;;;;1.13;1.07;;;28.30;57.70;;;;;;6216774;23;20391;-63
2022/09/13 15:17:58;;;;;;;0.80;0.80;;;28.20;57.50;;;;;;6216852;23;20700;-63
2022/09/13 15:20:50;;;;;;;0.80;0.80;;;28.20;58.60;;;;;;6216171;23;20156;-62
2022/09/13 15:23:28;;;;;;;0.90;0.90;;;28.00;58.40;;;;;;6215752;23;20900;-63
2022/09/13 15:26:21;;;;;;;1.00;1.00;;;27.90;58.70;;;;;;6216669;23;20330;-62
2022/09/13 15:28:53;;;;;;;1.77;1.10;;;27.80;59.10;;;;;;6204779;23;20404;-63
2022/09/13 15:31:21;;;;;;;1.00;1.00;;;27.80;59.60;;;;;;6216685;23;20427;-62
2022/09/13 15:33:46;;;;;;;1.30;1.30;;;27.70;62.20;;;;;;6216159;23;20420;-62
2022/09/13 15:36:16;;;;;;;1.43;1.30;;;27.60;64.70;;;;;;6216666;23;20376;-62
2022/09/13 15:39:08;;;;;;;1.67;1.57;;;27.50;66.50;;;;;;6216066;23;20153;-62
2022/09/13 15:41:38;;;;;;;2.53;2.00;;;27.30;67.60;;;;;;6216389;23;20436;-62
2022/09/13 15:44:07;;;;;;;1.90;1.60;;;27.20;68.20;;;;;;6216208;23;20575;-63
2022/09/13 15:46:43;;;;;;;2.67;2.10;;;27.20;69.20;;;;;;6216310;23;20471;-63
2022/09/13 15:49:16;;;;;;;1.90;1.80;;;27.10;69.40;;;;;;6216015;23;20423;-63
2022/09/13 15:51:43;;;;;;;2.70;1.57;;;27.10;69.80;;;;;;6189535;23;20412;-63
2022/09/13 15:54:16;;;;;;;1.30;1.20;;;27.00;70.10;;;;;;6215661;23;20709;-63
2022/09/13 15:56:50;;;;;;;1.20;1.10;;;27.00;70.30;;;;;;6216395;23;20348;-63
2022/09/13 15:59:17;;;;;;;1.73;1.23;;;27.00;70.20;;;;;;6215789;23;20695;-63
2022/09/13 16:01:44;;;;;;;1.30;1.30;;;27.00;70.60;;;;;;6216374;23;20422;-62
2022/09/13 16:04:10;;;;;;;1.33;1.23;;;26.90;70.40;;;;;;6215407;23;20438;-63
2022/09/13 16:06:37;;;;;;;3.20;1.37;;;26.90;70.50;;;;;;6216125;23;20627;-62
2022/09/13 16:09:23;;;;;;;1.30;1.30;;;26.90;71.00;;;;;;6216294;23;20944;-62
2022/09/13 16:11:50;;;;;;;1.20;1.20;;;26.80;71.20;;;;;;6216313;23;20376;-63
2022/09/13 16:14:16;;;;;;;1.20;1.20;;;26.80;71.60;;;;;;6215259;23;20453;-63
2022/09/13 16:16:42;;;;;;;1.40;1.30;;;26.70;71.80;;;;;;6215976;23;20377;-63
2022/09/13 16:19:16;;;;;;;1.23;1.20;;;26.70;72.30;;;;;;6215852;23;20345;-62
2022/09/13 16:21:42;;;;;;;1.17;1.07;;;26.70;72.90;;;;;;6215936;23;20349;-62
2022/09/13 16:24:07;;;;;;;1.73;1.63;;;26.60;73.40;;;;;;6215780;23;20380;-63
2022/09/13 16:26:34;;;;;;;1.20;1.20;;;26.50;74.50;;;;;;6216109;23;20229;-63
2022/09/13 16:29:00;;;;;;;0.97;0.97;;;26.50;74.00;;;;;;6216173;23;20683;-63
2022/09/13 16:31:34;;;;;;;1.30;1.20;;;26.50;74.00;;;;;;6216000;23;20359;-62
2022/09/13 16:33:59;;;;;;;1.30;1.20;;;26.40;74.20;;;;;;6215361;23;20185;-62
2022/09/13 16:36:27;;;;;;;2.33;1.40;;;26.30;74.30;;;;;;6216015;23;20702;-62
2022/09/13 16:38:54;;;;;;;1.37;1.27;;;26.30;73.90;;;;;;6215960;23;20656;-62
2022/09/13 16:41:19;;;;;;;1.60;1.27;;;26.20;74.50;;;;;;6215346;23;20378;-61
2022/09/13 16:43:45;;;;;;;1.90;1.80;;;26.20;74.20;;;;;;6188305;23;20379;-61
2022/09/13 16:46:12;;;;;;;1.20;1.20;;;26.10;73.70;;;;;;6215899;23;20177;-61
2022/09/13 16:48:38;;;;;;;1.07;1.07;;;26.10;73.70;;;;;;6215775;23;20157;-62
2022/09/13 16:51:08;;;;;;;1.30;1.20;;;26.10;73.80;;;;;;6215755;23;20376;-61
2022/09/13 16:53:37;;;;;;;1.27;1.27;;;26.00;73.10;;;;;;6215199;23;20481;-62
2022/09/13 16:56:08;;;;;;;1.17;1.10;;;25.90;73.20;;;;;;6188911;23;20399;-62
2022/09/13 16:58:38;;;;;;;1.53;1.43;;;25.80;73.60;;;;;;6215900;23;20686;-62
2022/09/13 17:01:09;;;;;;;1.10;1.10;;;25.80;74.10;;;;;;6215748;23;20368;-61
2022/09/13 17:03:36;;;;;;;1.70;1.60;;;25.70;74.70;;;;;;6188537;23;20519;-63
2022/09/13 17:06:08;;;;;;;2.03;1.90;;;25.60;75.50;;;;;;6215176;23;20876;-63
2022/09/13 17:08:35;;;;;;;1.43;1.33;;;25.60;76.00;;;;;;6215522;23;20373;-64
2022/09/13 17:11:06;;;;;;;1.20;1.10;;;25.50;76.30;;;;;;6215452;23;20443;-63
2022/09/13 17:13:31;;;;;;;1.57;1.47;;;25.40;76.80;;;;;;6215399;23;20759;-62
2022/09/13 17:15:57;;;;;;;2.03;1.93;;;25.30;77.10;;;;;;6215764;23;20420;-62
2022/09/13 17:18:22;;;;;;;1.60;1.50;;;25.30;77.30;;;;;;6217701;23;20141;-63
2022/09/13 17:20:49;;;;;;;1.40;1.30;;;25.20;78.10;;;;;;6217741;23;20157;-63
2022/09/13 17:23:16;;;;;;;1.53;1.40;;;25.10;77.70;;;;;;6217220;23;20278;-63
2022/09/13 17:25:48;;;;;;;3.40;1.90;;;25.00;78.20;;;;;;6217238;23;20365;-63
2022/09/13 17:28:16;;;;;;;4.07;3.30;;;24.90;78.70;;;;;;6217951;23;20372;-62